Time;durP1;ratioP1;P1;durP2;ratioP2;P2;SDS_P1;SDS_P2;PMS_P1;PMS_P2;Temp;Humidity;BMP_temperature;BMP_pressure;BME280_temperature;BME280_humidity;BME280_pressure;Samples;Min_cycle;Max_cycle;Signal;HPM_P1;HPM_P2
2022/08/19 00:00:01;;;;;;;0.00;0.00;;;;;;;16.77;58.39;100521.97;7354426;19;20855;-62
2022/08/19 00:02:26;;;;;;;0.00;0.00;;;;;;;16.72;58.69;100529.25;7354505;19;20019;-61
2022/08/19 00:04:55;;;;;;;0.00;0.00;;;;;;;16.68;58.44;100532.13;7360695;19;20014;-61
2022/08/19 00:07:21;;;;;;;0.00;0.00;;;;;;;16.53;58.79;100512.66;7360165;19;20045;-61
2022/08/19 00:09:46;;;;;;;0.00;0.00;;;;;;;16.57;59.00;100530.00;7362557;19;20045;-61
2022/08/19 00:12:12;;;;;;;0.00;0.00;;;;;;;16.52;59.57;100532.00;7361178;19;20565;-61
2022/08/19 00:14:38;;;;;;;0.00;0.00;;;;;;;16.49;59.20;100532.19;7361556;19;20526;-62
2022/08/19 00:17:04;;;;;;;0.00;0.00;;;;;;;16.47;59.06;100541.91;7360847;19;20428;-61
2022/08/19 00:19:30;;;;;;;0.05;0.05;;;;;;;16.45;58.94;100538.53;7360968;19;20023;-61
2022/08/19 00:21:56;;;;;;;0.00;0.00;;;;;;;16.42;59.27;100541.28;7361082;19;20502;-61
2022/08/19 00:24:22;;;;;;;0.00;0.00;;;;;;;16.38;59.45;100540.63;7361597;19;20027;-61
2022/08/19 00:26:50;;;;;;;0.00;0.00;;;;;;;16.27;59.69;100527.97;7360593;19;20143;-61
2022/08/19 00:29:17;;;;;;;0.00;0.00;;;;;;;16.20;59.68;100521.28;7361634;19;20237;-60
2022/08/19 00:31:43;;;;;;;0.00;0.00;;;;;;;16.30;59.89;100546.25;7361148;19;20017;-61
2022/08/19 00:34:11;;;;;;;0.00;0.00;;;;;;;16.25;59.62;100544.78;7361668;19;20018;-61
2022/08/19 00:36:37;;;;;;;0.00;0.00;;;;;;;16.23;59.52;100546.63;7359033;19;20026;-62
2022/08/19 00:39:03;;;;;;;0.00;0.00;;;;;;;16.21;59.75;100548.47;7360681;19;20007;-61
2022/08/19 00:41:29;;;;;;;0.00;0.00;;;;;;;16.17;60.00;100545.16;7359009;19;21016;-61
2022/08/19 00:44:05;;;;;;;0.00;0.00;;;;;;;16.16;59.96;100547.84;7361706;19;20019;-61
2022/08/19 00:46:32;;;;;;;0.00;0.00;;;;;;;16.06;60.01;100550.91;7361101;19;20574;-61
2022/08/19 00:48:59;;;;;;;0.00;0.00;;;;;;;16.08;60.10;100545.59;7360307;19;20014;-60
2022/08/19 00:51:27;;;;;;;0.00;0.00;;;;;;;16.05;59.98;100553.63;7361128;19;20021;-61
2022/08/19 00:53:55;;;;;;;0.00;0.00;;;;;;;15.95;60.02;100539.19;7360632;19;20006;-61
2022/08/19 00:56:21;;;;;;;0.00;0.00;;;;;;;15.98;60.63;100552.22;7359381;19;20010;-61
2022/08/19 00:58:47;;;;;;;0.00;0.00;;;;;;;15.94;60.15;100550.66;7361471;19;20007;-61
2022/08/19 01:01:13;;;;;;;0.00;0.00;;;;;;;15.91;60.46;100550.78;7360685;19;20015;-61
2022/08/19 01:03:39;;;;;;;0.00;0.00;;;;;;;15.79;60.59;100536.44;7359858;19;20018;-61
2022/08/19 01:06:05;;;;;;;0.00;0.00;;;;;;;15.82;60.73;100550.31;7361321;19;20022;-61
2022/08/19 01:08:30;;;;;;;0.00;0.00;;;;;;;15.80;60.73;100540.75;7362165;19;20455;-62
2022/08/19 01:10:59;;;;;;;0.00;0.00;;;;;;;15.77;60.52;100539.16;7361141;19;20101;-61
2022/08/19 01:13:27;;;;;;;0.00;0.00;;;;;;;15.73;61.35;100542.84;7362540;19;20628;-61
2022/08/19 01:16:00;;;;;;;0.00;0.00;;;;;;;15.72;61.29;100532.41;7361356;19;20022;-61
2022/08/19 01:18:27;;;;;;;0.00;0.00;;;;;;;15.67;61.52;100537.88;7364032;19;20351;-61
2022/08/19 01:20:55;;;;;;;0.00;0.00;;;;;;;15.67;61.57;100537.88;7364898;19;20796;-61
2022/08/19 01:23:42;;;;;;;0.00;0.00;;;;;;;15.65;62.03;100538.84;7363405;19;20637;-62
2022/08/19 01:26:07;;;;;;;0.00;0.00;;;;;;;15.66;62.21;100545.81;7364177;19;20091;-60
2022/08/19 01:28:32;;;;;;;0.00;0.00;;;;;;;15.66;62.01;100543.19;7363675;19;20026;-61
2022/08/19 01:30:58;;;;;;;0.00;0.00;;;;;;;15.57;62.02;100531.28;7362283;19;20010;-62
2022/08/19 01:33:24;;;;;;;0.00;0.00;;;;;;;15.69;62.11;100556.22;7362986;19;20518;-60
2022/08/19 01:35:51;;;;;;;0.00;0.00;;;;;;;15.65;62.22;100539.69;7363844;19;20011;-61
2022/08/19 01:38:26;;;;;;;0.00;0.00;;;;;;;15.66;61.95;100530.03;7363535;19;20061;-61
2022/08/19 01:40:52;;;;;;;0.00;0.00;;;;;;;15.73;62.24;100553.38;7363376;19;20617;-61
2022/08/19 01:43:18;;;;;;;0.00;0.00;;;;;;;15.74;62.25;100560.34;7363594;19;22341;-61
2022/08/19 01:45:45;;;;;;;0.00;0.00;;;;;;;15.74;62.63;100555.06;7364143;19;20108;-62
2022/08/19 01:48:11;;;;;;;0.00;0.00;;;;;;;15.75;62.57;100551.50;7360428;19;20018;-60
2022/08/19 01:50:37;;;;;;;0.00;0.00;;;;;;;15.77;62.55;100559.34;7363000;19;20688;-61
2022/08/19 01:53:06;;;;;;;0.00;0.00;;;;;;;15.78;62.46;100559.28;7361827;19;20036;-61
2022/08/19 01:55:33;;;;;;;0.00;0.00;;;;;;;15.79;62.59;100553.06;7362499;19;20011;-59
2022/08/19 01:58:01;;;;;;;0.00;0.00;;;;;;;15.75;63.08;100537.50;7356435;19;21995;-61
2022/08/19 02:00:30;;;;;;;0.00;0.00;;;;;;;15.85;62.47;100548.44;7364930;19;20007;-62
2022/08/19 02:02:56;;;;;;;0.00;0.00;;;;;;;15.85;62.83;100549.31;7365040;19;20114;-61
2022/08/19 02:05:22;;;;;;;0.00;0.00;;;;;;;15.75;62.65;100529.59;7364801;19;20007;-61
2022/08/19 02:07:49;;;;;;;0.00;0.00;;;;;;;15.88;62.79;100545.69;7365429;19;20006;-61
2022/08/19 02:10:20;;;;;;;0.00;0.00;;;;;;;15.90;62.66;100539.41;7366201;19;20006;-61
2022/08/19 02:12:45;;;;;;;0.00;0.00;;;;;;;15.90;63.01;100543.81;7363351;19;20019;-61
2022/08/19 02:15:11;;;;;;;0.00;0.00;;;;;;;15.94;62.85;100550.66;7365265;19;21072;-61
2022/08/19 02:17:37;;;;;;;0.00;0.00;;;;;;;15.96;62.87;100556.69;7363787;19;20018;-61
2022/08/19 02:20:03;;;;;;;0.00;0.00;;;;;;;15.97;62.74;100558.44;7365036;19;20036;-61
2022/08/19 02:22:29;;;;;;;0.00;0.00;;;;;;;15.99;62.43;100565.31;7365278;19;20090;-61
2022/08/19 02:24:55;;;;;;;0.00;0.00;;;;;;;16.00;62.85;100560.91;7365360;19;21080;-61
2022/08/19 02:27:21;;;;;;;0.00;0.00;;;;;;;16.00;62.90;100558.25;7365095;19;20022;-61
2022/08/19 02:29:49;;;;;;;0.00;0.00;;;;;;;16.03;62.98;100563.41;7362477;19;20159;-61
2022/08/19 02:32:15;;;;;;;0.00;0.00;;;;;;;16.01;63.00;100557.34;7364815;19;20030;-62
2022/08/19 02:34:40;;;;;;;0.00;0.00;;;;;;;15.91;62.56;100537.63;7365906;19;20014;-60
2022/08/19 02:38:24;;;;;;;0.00;0.00;;;;;;;16.00;62.61;100550.38;7362498;19;20014;-61
2022/08/19 02:39:51;;;;;;;0.00;0.00;;;;;;;15.97;62.33;100558.44;7363440;19;20035;-61
2022/08/19 02:42:17;;;;;;;0.00;0.00;;;;;;;15.93;62.33;100559.50;7364624;19;20014;-61
2022/08/19 02:44:42;;;;;;;0.00;0.00;;;;;;;15.88;62.65;100554.44;7363981;19;20015;-61
2022/08/19 02:47:07;;;;;;;0.00;0.00;;;;;;;15.82;62.43;100552.94;7361712;19;20014;-61
2022/08/19 02:49:33;;;;;;;0.08;0.08;;;;;;;15.77;62.76;100549.69;7364771;19;20046;-61
2022/08/19 02:51:58;;;;;;;0.00;0.00;;;;;;;15.64;63.16;100534.50;7362774;19;20013;-61
2022/08/19 02:54:23;;;;;;;0.00;0.00;;;;;;;15.68;63.21;100542.19;7364463;19;20027;-61
2022/08/19 02:56:49;;;;;;;0.00;0.00;;;;;;;15.62;63.29;100545.09;7363865;19;20003;-61
2022/08/19 02:59:14;;;;;;;0.03;0.03;;;;;;;15.61;63.29;100548.63;7363130;19;20010;-61
2022/08/19 03:01:41;;;;;;;0.00;0.00;;;;;;;15.58;63.77;100549.63;7360210;19;20018;-62
2022/08/19 03:04:08;;;;;;;0.00;0.00;;;;;;;15.55;63.47;100551.53;7357047;19;20473;-61
2022/08/19 03:06:36;;;;;;;0.00;0.00;;;;;;;15.51;63.46;100553.47;7364375;19;20003;-61
2022/08/19 03:09:02;;;;;;;0.00;0.00;;;;;;;15.47;63.94;100546.63;7365144;19;20073;-61
2022/08/19 03:11:31;;;;;;;0.00;0.00;;;;;;;15.47;63.86;100545.78;7364704;19;21821;-62
2022/08/19 03:13:58;;;;;;;0.00;0.00;;;;;;;15.34;64.15;100545.47;7363246;19;20742;-61
2022/08/19 03:16:25;;;;;;;0.00;0.00;;;;;;;15.34;64.29;100547.25;7361311;19;20022;-60
2022/08/19 03:18:52;;;;;;;0.05;0.05;;;;;;;15.36;64.09;100548.03;7360142;19;20025;-62
2022/08/19 03:21:23;;;;;;;0.00;0.00;;;;;;;15.34;64.25;100549.88;7363765;19;20054;-62
2022/08/19 03:23:49;;;;;;;0.00;0.00;;;;;;;15.32;64.15;100558.72;7364860;19;20516;-61
2022/08/19 03:26:15;;;;;;;0.00;0.00;;;;;;;15.29;64.13;100553.56;7364749;19;20424;-61
2022/08/19 03:28:41;;;;;;;0.00;0.00;;;;;;;15.18;64.69;100540.03;7365506;19;20009;-61
2022/08/19 03:31:13;;;;;;;0.00;0.00;;;;;;;15.26;64.09;100558.13;7363630;19;20792;-61
2022/08/19 03:33:42;;;;;;;0.00;0.00;;;;;;;15.22;64.71;100560.03;7363998;19;20409;-61
2022/08/19 03:36:12;;;;;;;0.00;0.00;;;;;;;15.21;64.61;100566.22;7364250;19;20014;-62
2022/08/19 03:38:44;;;;;;;0.00;0.00;;;;;;;15.18;64.25;100550.56;7368739;19;20010;-62
2022/08/19 03:41:15;;;;;;;0.00;0.00;;;;;;;15.16;64.94;100565.56;7369886;19;20011;-62
2022/08/19 03:43:42;;;;;;;0.00;0.00;;;;;;;15.15;64.78;100570.88;7370963;19;20495;-61
2022/08/19 03:46:11;;;;;;;0.00;0.00;;;;;;;15.13;65.25;100557.81;7369072;19;20495;-61
2022/08/19 03:48:39;;;;;;;0.00;0.00;;;;;;;15.18;65.40;100560.25;7369971;19;20387;-60
2022/08/19 03:51:05;;;;;;;0.00;0.00;;;;;;;15.20;65.09;100553.13;7369887;19;20082;-61
2022/08/19 03:53:33;;;;;;;0.03;0.03;;;;;;;15.21;65.52;100550.44;7369525;19;20034;-59
2022/08/19 03:56:02;;;;;;;0.00;0.00;;;;;;;15.20;65.34;100543.44;7370381;19;20002;-61
2022/08/19 03:58:29;;;;;;;0.00;0.00;;;;;;;15.19;65.85;100541.75;7370550;19;20006;-62
2022/08/19 04:00:58;;;;;;;0.00;0.00;;;;;;;15.19;64.67;100547.00;7369429;19;20034;-61
2022/08/19 04:03:26;;;;;;;0.00;0.00;;;;;;;15.16;65.58;100547.16;7371335;19;20027;-61
2022/08/19 04:05:53;;;;;;;0.00;0.00;;;;;;;15.13;64.96;100542.03;7370205;19;20010;-61
2022/08/19 04:08:22;;;;;;;0.00;0.00;;;;;;;15.06;64.94;100511.66;7371981;19;20034;-62
2022/08/19 04:10:48;;;;;;;0.00;0.00;;;;;;;15.09;65.58;100535.19;7369735;19;20014;-61
2022/08/19 04:13:17;;;;;;;0.00;0.00;;;;;;;15.07;65.67;100544.94;7369781;19;20023;-61
2022/08/19 04:15:46;;;;;;;0.00;0.00;;;;;;;15.01;65.88;100537.31;7369433;19;20035;-60
2022/08/19 04:18:12;;;;;;;0.00;0.00;;;;;;;15.01;65.98;100542.56;7370193;19;20007;-61
2022/08/19 04:20:46;;;;;;;0.00;0.00;;;;;;;15.02;65.02;100544.28;7369773;19;20014;-61
2022/08/19 04:23:13;;;;;;;0.00;0.00;;;;;;;14.96;66.16;100539.28;7369649;19;20569;-61
2022/08/19 04:25:41;;;;;;;0.00;0.00;;;;;;;14.95;66.52;100542.81;7370006;19;20043;-61
2022/08/19 04:28:09;;;;;;;0.00;0.00;;;;;;;14.92;66.05;100549.06;7371534;19;20035;-61
2022/08/19 04:30:44;;;;;;;0.00;0.00;;;;;;;14.92;65.85;100548.22;7369584;19;20009;-61
2022/08/19 04:33:11;;;;;;;0.05;0.05;;;;;;;14.89;66.21;100537.81;7369709;19;20027;-62
2022/08/19 04:35:38;;;;;;;0.00;0.00;;;;;;;14.86;65.90;100546.72;7369870;19;20038;-60
2022/08/19 04:38:04;;;;;;;0.00;0.00;;;;;;;14.85;65.89;100536.25;7370044;19;20987;-61
2022/08/19 04:43:14;;;;;;;0.00;0.00;;;;;;;14.82;66.23;100541.66;7370394;19;20027;-61
2022/08/19 04:45:40;;;;;;;0.00;0.00;;;;;;;14.80;65.90;100541.72;7369355;19;20055;-61
2022/08/19 04:48:05;;;;;;;0.00;0.00;;;;;;;14.77;65.83;100542.69;7370165;19;20026;-62
2022/08/19 04:50:30;;;;;;;0.00;0.00;;;;;;;14.76;66.04;100548.03;7367006;19;20122;-62
2022/08/19 04:52:56;;;;;;;0.00;0.00;;;;;;;14.74;66.10;100542.81;7369293;19;20047;-61
2022/08/19 04:55:21;;;;;;;0.00;0.00;;;;;;;14.73;66.55;100551.63;7369294;19;21018;-61
2022/08/19 04:57:47;;;;;;;0.00;0.00;;;;;;;14.71;66.32;100552.63;7368767;19;20011;-61
2022/08/19 05:00:12;;;;;;;0.00;0.00;;;;;;;14.69;66.70;100552.66;7370456;19;20011;-62
2022/08/19 05:02:38;;;;;;;0.00;0.00;;;;;;;14.68;66.90;100550.97;7367694;19;20014;-61
2022/08/19 05:05:06;;;;;;;0.00;0.00;;;;;;;14.68;66.73;100563.25;7369606;19;20014;-62
2022/08/19 05:07:32;;;;;;;0.00;0.00;;;;;;;14.65;66.89;100566.00;7368751;19;20820;-61
2022/08/19 05:09:57;;;;;;;0.00;0.00;;;;;;;14.63;67.24;100571.31;7369749;19;20069;-62
2022/08/19 05:12:24;;;;;;;0.00;0.00;;;;;;;14.54;67.12;100550.69;7368304;19;20348;-62
2022/08/19 05:14:49;;;;;;;0.00;0.00;;;;;;;14.61;67.04;100562.66;7368998;19;20006;-62
2022/08/19 05:17:15;;;;;;;0.00;0.00;;;;;;;14.60;66.92;100568.84;7368991;19;20017;-61
2022/08/19 05:22:32;;;;;;;0.00;0.00;;;;;;;14.58;66.97;100562.78;7367061;19;20012;-62
2022/08/19 05:24:57;;;;;;;0.00;0.00;;;;;;;14.58;66.61;100560.16;7369197;19;20074;-61
2022/08/19 05:27:23;;;;;;;0.00;0.00;;;;;;;14.59;67.28;100558.38;7370134;19;21248;-61
2022/08/19 05:29:48;;;;;;;0.00;0.00;;;;;;;14.58;67.04;100559.31;7368563;19;20006;-62
2022/08/19 05:32:14;;;;;;;0.08;0.08;;;;;;;14.48;67.04;100548.31;7368166;19;20033;-61
2022/08/19 05:34:39;;;;;;;0.00;0.00;;;;;;;14.52;66.89;100549.91;7368649;19;20013;-61
2022/08/19 05:37:07;;;;;;;0.00;0.00;;;;;;;14.55;67.08;100560.31;7368594;19;20023;-61
2022/08/19 05:39:33;;;;;;;;;;;;;;;14.58;64.81;100564.56;7368912;19;20010;-61
2022/08/19 05:42:06;;;;;;;0.00;0.00;;;;;;;14.50;66.90;100559.63;7368079;19;20367;-61
2022/08/19 05:44:35;;;;;;;0.00;0.00;;;;;;;14.54;67.17;100571.69;7367364;19;20006;-62
2022/08/19 05:47:02;;;;;;;0.00;0.00;;;;;;;14.43;66.92;100560.75;7366961;19;20037;-61
2022/08/19 05:49:28;;;;;;;;;;;;;;;14.53;65.06;100578.72;7369987;19;21086;-61
2022/08/19 05:51:55;;;;;;;0.00;0.00;;;;;;;14.41;66.87;100567.84;7366357;19;19966;-61
2022/08/19 05:54:22;;;;;;;0.00;0.00;;;;;;;14.50;67.42;100583.28;7368214;19;20051;-62
2022/08/19 05:56:49;;;;;;;0.00;0.00;;;;;;;14.51;66.92;100585.00;7367603;19;20019;-61
2022/08/19 05:59:17;;;;;;;0.00;0.00;;;;;;;14.51;67.58;100591.09;7358209;19;20036;-61
2022/08/19 06:01:46;;;;;;;0.00;0.00;;;;;;;14.43;66.88;100571.25;7364536;19;20010;-61
2022/08/19 06:04:17;;;;;;;0.00;0.00;;;;;;;14.52;67.53;100605.09;7366318;19;20003;-61
2022/08/19 06:06:42;;;;;;;0.00;0.00;;;;;;;14.52;67.36;100607.72;7364482;19;20023;-61
2022/08/19 06:09:09;;;;;;;0.00;0.00;;;;;;;14.51;67.32;100606.84;7366399;19;20376;-60
2022/08/19 06:11:40;;;;;;;0.00;0.00;;;;;;;14.56;67.13;100619.81;7364219;19;20006;-61
2022/08/19 06:14:09;;;;;;;0.00;0.00;;;;;;;14.56;67.02;100629.47;7363703;19;20018;-61
2022/08/19 06:16:38;;;;;;;0.00;0.00;;;;;;;14.55;67.20;100623.38;7363063;19;20010;-61
2022/08/19 06:19:07;;;;;;;0.00;0.00;;;;;;;14.55;66.99;100623.38;7365156;19;20116;-61
2022/08/19 06:21:35;;;;;;;0.00;0.00;;;;;;;14.56;67.87;100629.47;7364462;19;20287;-61
2022/08/19 06:24:02;;;;;;;0.00;0.00;;;;;;;14.57;67.40;100620.66;7365955;19;20011;-61
2022/08/19 06:26:27;;;;;;;0.00;0.00;;;;;;;14.48;67.58;100604.34;7364562;19;20114;-58
2022/08/19 06:28:53;;;;;;;0.00;0.00;;;;;;;14.61;67.73;100633.63;7363598;19;20007;-62
2022/08/19 06:31:21;;;;;;;0.00;0.00;;;;;;;14.63;67.67;100626.53;7364794;19;20030;-57
2022/08/19 06:33:49;;;;;;;0.00;0.00;;;;;;;14.58;67.75;100617.97;7364305;19;20014;-61
2022/08/19 06:36:31;;;;;;;0.00;0.00;;;;;;;14.64;67.01;100620.34;7364578;19;20007;-61
2022/08/19 06:38:58;;;;;;;0.00;0.00;;;;;;;14.72;67.92;100635.81;7365001;19;20006;-61
2022/08/19 06:41:28;;;;;;;0.00;0.00;;;;;;;14.77;67.24;100639.97;7363974;19;20022;-61
2022/08/19 06:43:54;;;;;;;0.00;0.00;;;;;;;14.81;66.23;100640.69;7363699;19;20022;-61
2022/08/19 06:46:20;;;;;;;0.00;0.00;;;;;;;14.83;67.71;100643.25;7365274;19;20465;-61
2022/08/19 06:48:47;;;;;;;0.00;0.00;;;;;;;14.88;67.89;100651.81;7362667;19;20015;-61
2022/08/19 06:51:18;;;;;;;0.00;0.00;;;;;;;14.92;68.04;100650.78;7364449;19;20026;-61
2022/08/19 06:53:46;;;;;;;0.00;0.00;;;;;;;14.97;67.26;100647.03;7364631;19;20010;-62
2022/08/19 06:56:12;;;;;;;0.00;0.00;;;;;;;15.01;67.76;100642.50;7363594;19;20861;-61
2022/08/19 06:58:38;;;;;;;0.00;0.00;;;;;;;15.07;67.44;100638.75;7364031;19;20006;-61
2022/08/19 07:01:04;;;;;;;0.00;0.00;;;;;;;15.16;67.50;100643.63;7364071;19;20801;-61
2022/08/19 07:03:34;;;;;;;0.00;0.00;;;;;;;15.23;67.55;100650.34;7364060;19;20010;-61
2022/08/19 07:06:11;;;;;;;0.00;0.00;;;;;;;15.31;66.62;100641.19;7360171;19;20002;-62
2022/08/19 07:08:39;;;;;;;0.00;0.00;;;;;;;15.34;67.47;100649.88;7363582;19;20513;-61
2022/08/19 07:11:09;;;;;;;;;;;;;;;15.46;65.66;100654.59;7364206;19;20499;-61
2022/08/19 07:13:37;;;;;;;0.00;0.00;;;;;;;15.47;66.80;100649.28;7365801;19;19982;-60
2022/08/19 07:16:07;;;;;;;0.00;0.00;;;;;;;15.55;66.79;100651.56;7369173;19;20095;-61
2022/08/19 07:18:33;;;;;;;0.00;0.00;;;;;;;15.48;67.09;100636.97;7370543;19;20046;-62
2022/08/19 07:21:29;;;;;;;0.00;0.00;;;;;;;15.64;66.71;100652.97;7367986;19;20038;-61
2022/08/19 07:23:56;;;;;;;0.00;0.00;;;;;;;15.73;67.11;100663.09;7265747;19;2004577;-61
2022/08/19 07:26:27;;;;;;;0.00;0.00;;;;;;;15.70;66.57;100636.91;7370187;19;20015;-61
2022/08/19 07:28:53;;;;;;;0.00;0.00;;;;;;;15.89;66.77;100660.63;7369841;19;20174;-62
2022/08/19 07:31:23;;;;;;;0.00;0.00;;;;;;;15.98;66.17;100660.22;7370303;19;20047;-61
2022/08/19 07:33:51;;;;;;;0.00;0.00;;;;;;;16.02;66.02;100660.00;7370051;19;20011;-62
2022/08/19 07:36:20;;;;;;;0.00;0.00;;;;;;;16.07;66.32;100667.69;7368593;19;20010;-61
2022/08/19 07:38:48;;;;;;;0.00;0.00;;;;;;;16.08;66.19;100664.13;7368803;19;20010;-61
2022/08/19 07:41:17;;;;;;;0.00;0.00;;;;;;;16.13;66.34;100669.19;7369064;19;20070;-62
2022/08/19 07:43:44;;;;;;;0.00;0.00;;;;;;;16.12;66.23;100670.97;7369771;19;20901;-61
2022/08/19 07:46:10;;;;;;;0.00;0.00;;;;;;;16.12;66.31;100664.81;7369648;19;20041;-61
2022/08/19 07:48:36;;;;;;;0.00;0.00;;;;;;;16.17;65.69;100676.88;7369691;19;20090;-61
2022/08/19 07:51:04;;;;;;;0.00;0.00;;;;;;;16.20;66.13;100668.81;7368810;19;20543;-61
2022/08/19 07:53:32;;;;;;;0.00;0.00;;;;;;;16.23;65.97;100679.22;7370639;19;20017;-61
2022/08/19 07:56:03;;;;;;;0.00;0.00;;;;;;;16.29;66.06;100678.94;7369855;19;20018;-62
2022/08/19 07:58:31;;;;;;;0.00;0.00;;;;;;;16.37;65.86;100691.75;7369370;19;20382;-62
2022/08/19 08:00:56;;;;;;;0.00;0.00;;;;;;;16.32;65.81;100668.28;7367112;19;20014;-61
2022/08/19 08:09:10;;;;;;;0.00;0.00;;;;;;;16.49;65.49;100685.06;7369238;19;20025;-62
2022/08/19 08:09:11;;;;;;;0.00;0.00;;;;;;;16.60;65.38;100688.03;7362673;19;20014;-61
2022/08/19 08:11:48;;;;;;;0.00;0.00;;;;;;;16.70;65.14;100694.56;7366257;19;20043;-62
2022/08/19 08:14:15;;;;;;;0.00;0.00;;;;;;;16.71;65.17;100701.59;7366701;19;20526;-61
2022/08/19 08:16:43;;;;;;;0.00;0.00;;;;;;;16.83;64.71;100705.44;7367320;19;20026;-61
2022/08/19 08:19:09;;;;;;;0.00;0.00;;;;;;;16.90;64.80;100698.91;7366778;19;20018;-61
2022/08/19 08:21:35;;;;;;;0.00;0.00;;;;;;;16.74;64.48;100659.25;7367473;19;20010;-61
2022/08/19 08:24:00;;;;;;;0.00;0.00;;;;;;;17.03;64.75;100688.59;7370345;19;20019;-62
2022/08/19 08:26:26;;;;;;;0.03;0.03;;;;;;;17.08;64.54;100689.22;7368376;19;20826;-62
2022/08/19 08:28:52;;;;;;;0.00;0.00;;;;;;;17.19;64.32;100688.72;7370286;19;20018;-62
2022/08/19 08:31:18;;;;;;;0.07;0.07;;;;;;;17.29;63.95;100682.03;7367654;19;20039;-61
2022/08/19 08:33:44;;;;;;;0.00;0.00;;;;;;;17.42;64.23;100684.88;7368681;19;21007;-61
2022/08/19 08:36:13;;;;;;;0.00;0.00;;;;;;;17.56;63.71;100695.59;7368482;19;20813;-62
2022/08/19 08:38:40;;;;;;;0.00;0.00;;;;;;;17.69;63.19;100696.69;7369858;19;20022;-61
2022/08/19 08:41:27;;;;;;;0.00;0.00;;;;;;;17.92;63.27;100698.13;7366972;19;20018;-62
2022/08/19 08:43:55;;;;;;;0.00;0.00;;;;;;;17.97;62.33;100711.09;7267789;19;2004395;-62
2022/08/19 08:46:33;;;;;;;;;;;;;;;18.15;62.95;100700.41;7368935;19;20025;-61
2022/08/19 08:49:25;;;;;;;0.00;0.00;;;;;;;18.23;61.58;100707.91;7368910;19;19929;-61
2022/08/19 08:52:22;;;;;;;0.00;0.00;;;;;;;18.34;61.98;100694.94;7267094;19;2004455;-61
2022/08/19 08:54:51;;;;;;;0.00;0.00;;;;;;;18.42;60.39;100698.03;7266058;19;2004664;-61
2022/08/19 08:57:25;;;;;;;0.00;0.00;;;;;;;18.56;61.20;100699.06;7368499;19;20030;-61
2022/08/19 08:59:54;;;;;;;0.00;0.00;;;;;;;18.68;60.07;100698.38;7366551;19;20015;-61
2022/08/19 09:02:19;;;;;;;0.00;0.00;;;;;;;18.81;59.74;100694.13;7368019;19;20010;-61
2022/08/19 09:04:45;;;;;;;0.03;0.03;;;;;;;19.00;59.24;100682.47;7368826;19;20014;-62
2022/08/19 09:07:20;;;;;;;0.10;0.10;;;;;;;19.28;60.27;100692.31;7366569;19;20502;-61
2022/08/19 09:09:50;;;;;;;0.00;0.00;;;;;;;19.43;58.52;100689.59;7368407;19;20939;-61
2022/08/19 09:12:31;;;;;;;0.00;0.00;;;;;;;19.68;59.02;100694.28;7366793;19;20006;-61
2022/08/19 09:15:28;;;;;;;0.00;0.00;;;;;;;19.92;58.87;100702.56;7367696;19;20085;-61
2022/08/19 09:17:53;;;;;;;;;;;;;;;20.12;59.51;100696.00;7266277;19;2004384;-62
2022/08/19 09:20:22;;;;;;;0.10;0.10;;;;;;;20.25;55.82;100698.72;7368905;19;19986;-62
2022/08/19 09:22:49;;;;;;;0.00;0.00;;;;;;;20.43;54.63;100694.94;7366455;19;20413;-61
2022/08/19 09:25:21;;;;;;;0.10;0.10;;;;;;;20.61;54.31;100698.22;7368509;19;20010;-62
2022/08/19 09:27:48;;;;;;;0.00;0.00;;;;;;;20.65;53.30;100702.38;7367326;19;20479;-61
2022/08/19 09:30:23;;;;;;;0.00;0.00;;;;;;;20.70;53.88;100704.75;7367751;19;20014;-59
2022/08/19 09:32:52;;;;;;;0.00;0.00;;;;;;;20.50;52.93;100684.78;7367249;19;20007;-61
2022/08/19 09:35:18;;;;;;;0.00;0.00;;;;;;;20.62;53.45;100701.72;7364167;19;20045;-61
2022/08/19 09:37:43;;;;;;;0.08;0.08;;;;;;;20.64;53.50;100702.50;7367765;19;20045;-61
2022/08/19 09:40:11;;;;;;;0.00;0.00;;;;;;;20.62;54.01;100699.06;7366582;19;20011;-61
2022/08/19 09:42:36;;;;;;;0.10;0.10;;;;;;;20.59;53.69;100704.59;7367271;19;20431;-62
2022/08/19 09:45:03;;;;;;;0.00;0.00;;;;;;;20.63;53.57;100696.34;7366271;19;20014;-62
2022/08/19 09:47:29;;;;;;;0.03;0.03;;;;;;;20.63;53.26;100712.25;7366724;19;20039;-61
2022/08/19 09:49:54;;;;;;;0.03;0.03;;;;;;;20.63;52.41;100700.75;7367175;19;20010;-61
2022/08/19 09:52:20;;;;;;;0.00;0.00;;;;;;;20.56;52.97;100695.00;7364284;19;20010;-61
2022/08/19 09:54:48;;;;;;;0.10;0.10;;;;;;;20.53;52.69;100689.91;7367030;19;20027;-62
2022/08/19 09:57:16;;;;;;;0.00;0.00;;;;;;;20.50;53.06;100695.41;7366742;19;20029;-61
2022/08/19 09:59:42;;;;;;;0.00;0.00;;;;;;;20.46;52.93;100689.44;7365855;19;20030;-61
2022/08/19 10:02:09;;;;;;;0.00;0.00;;;;;;;20.44;52.82;100699.28;7365579;19;20021;-62
2022/08/19 10:07:19;;;;;;;0.00;0.00;;;;;;;20.37;53.17;100700.59;7368389;19;20965;-62
2022/08/19 10:09:44;;;;;;;0.00;0.00;;;;;;;20.36;52.30;100701.56;7366054;19;20094;-61
2022/08/19 10:12:09;;;;;;;0.00;0.00;;;;;;;20.34;52.19;100690.19;7365014;19;20022;-61
2022/08/19 10:14:35;;;;;;;0.00;0.00;;;;;;;20.29;53.16;100681.69;7368002;19;20014;-62
2022/08/19 10:17:02;;;;;;;0.00;0.00;;;;;;;20.29;53.49;100686.16;7365623;19;20082;-62
2022/08/19 10:19:29;;;;;;;0.10;0.10;;;;;;;20.30;53.43;100688.69;7361302;19;20019;-60
2022/08/19 10:21:55;;;;;;;;;;;;;;;20.43;55.18;100689.63;7367231;19;20708;-61
2022/08/19 10:24:23;;;;;;;0.10;0.10;;;;;;;20.36;53.12;100698.06;7365829;19;19918;-61
2022/08/19 10:26:49;;;;;;;0.00;0.00;;;;;;;20.34;53.21;100703.47;7367317;19;20034;-61
2022/08/19 10:29:16;;;;;;;0.00;0.00;;;;;;;20.27;53.97;100702.13;7367513;19;20011;-62
2022/08/19 10:31:41;;;;;;;0.00;0.00;;;;;;;20.22;54.05;100690.97;7366401;19;20037;-62
2022/08/19 10:34:08;;;;;;;0.00;0.00;;;;;;;20.17;53.83;100696.59;7365995;19;20011;-62
2022/08/19 10:36:36;;;;;;;0.00;0.00;;;;;;;20.14;54.22;100710.03;7366211;19;20497;-61
2022/08/19 10:39:04;;;;;;;;;;;;;;;20.15;54.55;100705.56;7367541;19;20010;-62
2022/08/19 10:41:33;;;;;;;0.00;0.00;;;;;;;20.03;55.44;100695.72;7365750;19;19916;-61
2022/08/19 10:44:04;;;;;;;0.00;0.00;;;;;;;19.99;54.90;100700.38;7365230;19;20772;-61
2022/08/19 10:46:32;;;;;;;0.00;0.00;;;;;;;19.93;54.94;100701.59;7366427;19;20028;-61
2022/08/19 10:48:59;;;;;;;0.10;0.10;;;;;;;19.94;54.84;100690.03;7367255;19;20472;-61
2022/08/19 10:54:09;;;;;;;0.00;0.00;;;;;;;20.03;55.03;100698.38;7366040;19;19921;-61
2022/08/19 10:56:53;;;;;;;0.00;0.00;;;;;;;20.06;55.04;100700.81;7364436;19;20137;-61
2022/08/19 10:59:25;;;;;;;0.00;0.00;;;;;;;20.21;54.55;100691.91;7367927;19;20698;-61
2022/08/19 11:01:51;;;;;;;0.00;0.00;;;;;;;20.49;54.24;100708.78;7363250;19;20013;-62
2022/08/19 11:04:18;;;;;;;0.00;0.00;;;;;;;20.88;53.05;100703.56;7366630;19;20010;-61
2022/08/19 11:06:47;;;;;;;0.00;0.00;;;;;;;21.32;52.09;100699.75;7363983;19;20453;-62
2022/08/19 11:09:19;;;;;;;0.03;0.03;;;;;;;21.69;51.71;100686.59;7366002;19;20395;-62
2022/08/19 11:11:45;;;;;;;0.00;0.00;;;;;;;21.94;50.65;100670.63;7361679;19;20007;-62
2022/08/19 11:14:14;;;;;;;0.00;0.00;;;;;;;22.49;49.65;100682.66;7366120;19;20014;-61
2022/08/19 11:16:42;;;;;;;0.00;0.00;;;;;;;22.82;49.41;100683.81;7365454;19;20091;-61
2022/08/19 11:19:09;;;;;;;0.00;0.00;;;;;;;23.22;47.80;100692.38;7364264;19;20864;-61
2022/08/19 11:21:36;;;;;;;;;;;;;;;23.62;52.29;100693.78;7365600;19;20035;-62
2022/08/19 11:24:06;;;;;;;0.10;0.10;;;;;;;23.83;47.65;100688.66;7363512;19;19914;-62
2022/08/19 11:26:32;;;;;;;0.00;0.00;;;;;;;23.99;45.53;100676.66;7365287;19;20154;-62
2022/08/19 11:28:59;;;;;;;0.10;0.10;;;;;;;24.13;45.67;100698.69;7364757;19;20611;-62
2022/08/19 11:31:28;;;;;;;0.07;0.07;;;;;;;24.16;45.55;100693.13;7364780;19;20039;-61
2022/08/19 11:33:56;;;;;;;0.00;0.00;;;;;;;24.15;45.50;100704.78;7363770;19;21093;-62
2022/08/19 11:36:22;;;;;;;0.00;0.00;;;;;;;23.78;46.04;100651.69;7364730;19;20497;-60
2022/08/19 11:38:51;;;;;;;0.00;0.00;;;;;;;23.99;45.65;100695.31;7364654;19;20010;-60
2022/08/19 11:41:19;;;;;;;0.10;0.10;;;;;;;23.77;45.11;100697.97;7363592;19;20502;-62
2022/08/19 11:43:45;;;;;;;0.00;0.00;;;;;;;23.55;45.45;100704.06;7364562;19;20408;-61